createdAt,value
2023-05-10T00:00:09.338Z,56.81
2023-05-10T00:01:09.668Z,56.91
2023-05-10T00:02:10.083Z,56.91
2023-05-10T00:03:10.372Z,57.01
2023-05-10T00:04:10.610Z,57.12
2023-05-10T00:05:10.928Z,57.14
2023-05-10T00:06:11.246Z,57.24
2023-05-10T00:07:11.615Z,57.34
2023-05-10T00:08:11.878Z,57.34
2023-05-10T00:09:12.123Z,57.24
2023-05-10T00:10:12.545Z,57.24
2023-05-10T00:11:12.774Z,57.45
2023-05-10T00:12:13.110Z,57.45
2023-05-10T00:13:13.480Z,57.45
2023-05-10T00:14:13.698Z,57.45
2023-05-10T00:15:14.056Z,57.55
2023-05-10T00:16:14.432Z,57.45
2023-05-10T00:17:14.654Z,57.55
2023-05-10T00:18:14.874Z,57.45
2023-05-10T00:19:15.202Z,57.45
2023-05-10T00:20:15.663Z,57.55
2023-05-10T00:21:15.711Z,57.45
2023-05-10T00:22:16.512Z,57.55
2023-05-10T00:23:16.403Z,57.55
2023-05-10T00:24:16.625Z,57.65
2023-05-10T00:25:17.177Z,57.65
2023-05-10T00:26:17.121Z,57.75
2023-05-10T00:27:17.519Z,57.75
2023-05-10T00:28:17.832Z,57.86
2023-05-10T00:29:18.189Z,57.86
2023-05-10T00:30:18.614Z,57.88
2023-05-10T00:31:18.770Z,57.88
2023-05-10T00:32:19.264Z,57.88
2023-05-10T00:33:19.280Z,57.98
2023-05-10T00:34:19.571Z,58.29
2023-05-10T00:35:20.075Z,58.09
2023-05-10T00:36:20.251Z,58.09
2023-05-10T00:37:20.341Z,58.09
2023-05-10T00:38:20.678Z,58.09
2023-05-10T00:39:20.966Z,58.19
2023-05-10T00:40:21.189Z,58.39
2023-05-10T00:41:21.690Z,58.50
2023-05-10T00:42:21.850Z,58.39
2023-05-10T00:43:22.223Z,58.50
2023-05-10T00:44:22.429Z,58.50
2023-05-10T00:45:22.802Z,58.60
2023-05-10T00:46:23.088Z,58.80
2023-05-10T00:47:23.349Z,58.80
2023-05-10T00:48:23.650Z,58.80
2023-05-10T00:49:23.841Z,59.03
2023-05-10T00:50:24.210Z,59.03
2023-05-10T00:51:24.425Z,58.93
2023-05-10T00:52:24.776Z,58.93
2023-05-10T00:53:24.984Z,58.83
2023-05-10T00:54:25.346Z,58.93
2023-05-10T00:55:25.608Z,59.03
2023-05-10T00:56:25.813Z,59.14
2023-05-10T00:57:26.166Z,59.14
2023-05-10T00:58:26.369Z,59.03
2023-05-10T00:59:26.725Z,59.03
2023-05-10T01:00:27.087Z,59.14
2023-05-10T01:01:27.470Z,59.23
2023-05-10T01:02:27.790Z,59.23
2023-05-10T01:03:28.073Z,59.34
2023-05-10T01:04:28.395Z,59.34
2023-05-10T01:05:28.558Z,59.34
2023-05-10T01:06:29.049Z,59.23
2023-05-10T01:07:29.306Z,59.14
2023-05-10T01:08:29.524Z,59.34
2023-05-10T01:09:29.868Z,59.34
2023-05-10T01:10:30.089Z,59.34
2023-05-10T01:11:30.440Z,59.44
2023-05-10T01:12:30.809Z,59.34
2023-05-10T01:13:31.165Z,59.55
2023-05-10T01:14:31.440Z,59.44
2023-05-10T01:15:31.709Z,59.55
2023-05-10T01:16:31.997Z,59.57
2023-05-10T01:17:32.217Z,59.57
2023-05-10T01:18:32.520Z,59.57
2023-05-10T01:19:32.869Z,59.47
2023-05-10T01:20:33.121Z,59.57
2023-05-10T01:21:33.348Z,59.78
2023-05-10T01:22:33.663Z,59.67
2023-05-10T01:23:33.987Z,59.78
2023-05-10T01:24:34.314Z,59.78
2023-05-10T01:25:34.733Z,59.88
2023-05-10T01:26:34.956Z,59.98
2023-05-10T01:27:35.221Z,59.88
2023-05-10T01:28:35.429Z,59.98
2023-05-10T01:29:35.778Z,59.98
2023-05-10T01:30:36.081Z,59.78
2023-05-10T01:31:36.355Z,59.88
2023-05-10T01:32:36.628Z,59.98
2023-05-10T01:33:36.999Z,59.98
2023-05-10T01:34:37.276Z,59.98
2023-05-10T01:35:37.550Z,60.08
2023-05-10T01:36:37.860Z,59.98
2023-05-10T01:37:38.107Z,59.98
2023-05-10T01:38:38.439Z,59.98
2023-05-10T01:39:38.981Z,60.19
2023-05-10T01:40:38.967Z,60.19
2023-05-10T01:41:39.183Z,60.19
2023-05-10T01:42:39.547Z,60.19
2023-05-10T01:43:39.837Z,60.19
2023-05-10T01:44:40.089Z,60.31
2023-05-10T01:45:40.542Z,60.21
2023-05-10T01:46:40.865Z,60.31
2023-05-10T01:47:41.125Z,60.42
2023-05-10T01:48:41.382Z,60.42
2023-05-10T01:49:41.617Z,60.42
2023-05-10T01:50:41.830Z,60.42
2023-05-10T01:51:42.180Z,60.52
2023-05-10T01:52:42.431Z,60.52
2023-05-10T01:53:42.656Z,60.52
2023-05-10T01:54:42.904Z,60.42
2023-05-10T01:55:43.174Z,60.62
2023-05-10T01:56:43.400Z,60.52
2023-05-10T01:57:43.622Z,60.52
2023-05-10T01:58:43.968Z,60.62
2023-05-10T01:59:44.324Z,60.62
2023-05-10T02:00:44.635Z,60.72
2023-05-10T02:01:44.863Z,60.83
2023-05-10T02:02:45.131Z,60.72
2023-05-10T02:03:45.426Z,60.83
2023-05-10T02:04:45.571Z,60.83
2023-05-10T02:05:45.928Z,60.93
2023-05-10T02:06:46.188Z,60.83
2023-05-10T02:07:46.411Z,60.85
2023-05-10T02:08:46.800Z,60.93
2023-05-10T02:09:47.138Z,60.96
2023-05-10T02:10:47.403Z,61.06
2023-05-10T02:11:47.630Z,61.06
2023-05-10T02:12:47.876Z,61.06
2023-05-10T02:13:48.277Z,61.16
2023-05-10T02:14:48.479Z,61.26
2023-05-10T02:15:48.783Z,61.36
2023-05-10T02:16:49.042Z,61.26
2023-05-10T02:17:49.335Z,61.26
2023-05-10T02:18:49.561Z,61.26
2023-05-10T02:19:49.911Z,61.47
2023-05-10T02:20:50.147Z,61.47
2023-05-10T02:21:50.425Z,61.47
2023-05-10T02:22:50.630Z,61.47
2023-05-10T02:23:50.964Z,61.36
2023-05-10T02:24:51.381Z,61.47
2023-05-10T02:25:51.604Z,61.36
2023-05-10T02:26:51.925Z,61.47
2023-05-10T02:27:52.241Z,61.57
2023-05-10T02:28:52.612Z,61.57
2023-05-10T02:29:52.948Z,61.67
2023-05-10T02:30:53.184Z,61.67
2023-05-10T02:31:53.435Z,61.67
2023-05-10T02:32:53.763Z,61.70
2023-05-10T02:33:54.116Z,61.70
2023-05-10T02:34:54.370Z,61.80
2023-05-10T02:35:54.624Z,61.70
2023-05-10T02:36:54.870Z,61.80
2023-05-10T02:37:55.178Z,61.80
2023-05-10T02:38:55.515Z,61.80
2023-05-10T02:39:55.886Z,61.91
2023-05-10T02:40:56.092Z,62.01
2023-05-10T02:41:56.420Z,62.11
2023-05-10T02:42:56.729Z,62.01
2023-05-10T02:43:57.072Z,62.01
2023-05-10T02:44:57.412Z,62.01
2023-05-10T02:45:57.771Z,62.01
2023-05-10T02:46:58.103Z,61.91
2023-05-10T02:47:58.460Z,62.11
2023-05-10T02:48:58.656Z,62.11
2023-05-10T02:49:58.932Z,62.14
2023-05-10T02:50:59.147Z,62.24
2023-05-10T02:51:59.546Z,62.24
2023-05-10T02:52:59.707Z,62.35
2023-05-10T02:54:00.127Z,62.24
2023-05-10T02:55:00.342Z,62.35
2023-05-10T02:56:00.700Z,62.45
2023-05-10T02:57:00.925Z,62.35
2023-05-10T02:58:01.271Z,62.24
2023-05-10T02:59:01.513Z,62.35
2023-05-10T03:00:01.738Z,62.24
2023-05-10T03:01:02.151Z,62.35
2023-05-10T03:02:02.352Z,62.24
2023-05-10T03:03:02.737Z,62.24
2023-05-10T03:04:02.908Z,62.24
2023-05-10T03:05:03.203Z,62.35
2023-05-10T03:06:03.424Z,62.24
2023-05-10T03:07:03.660Z,62.14
2023-05-10T03:08:03.880Z,62.24
2023-05-10T03:09:04.239Z,62.24
2023-05-10T03:10:04.497Z,62.35
2023-05-10T03:11:04.743Z,62.35
2023-05-10T03:12:05.144Z,62.35
2023-05-10T03:13:05.394Z,62.24
2023-05-10T03:14:05.854Z,62.35
2023-05-10T03:15:06.074Z,62.35
2023-05-10T03:16:06.367Z,62.24
2023-05-10T03:17:06.600Z,62.35
2023-05-10T03:18:06.913Z,62.24
2023-05-10T03:19:07.189Z,62.35
2023-05-10T03:20:07.423Z,62.45
2023-05-10T03:21:07.754Z,62.35
2023-05-10T03:22:08.164Z,62.35
2023-05-10T03:23:08.373Z,62.45
2023-05-10T03:24:08.713Z,62.45
2023-05-10T03:25:09.093Z,62.45
2023-05-10T03:26:09.354Z,62.45
2023-05-10T03:27:09.592Z,62.65
2023-05-10T03:28:09.818Z,62.65
2023-05-10T03:29:10.083Z,62.55
2023-05-10T03:30:10.307Z,62.55
2023-05-10T03:31:10.596Z,62.76
2023-05-10T03:32:10.775Z,62.65
2023-05-10T03:33:11.124Z,62.65
2023-05-10T03:34:11.455Z,62.85
2023-05-10T03:35:11.700Z,62.96
2023-05-10T03:36:12.114Z,63.06
2023-05-10T03:37:12.362Z,63.06
2023-05-10T03:38:12.624Z,63.06
2023-05-10T03:39:12.874Z,63.06
2023-05-10T03:40:13.158Z,63.17
2023-05-10T03:41:13.422Z,62.96
2023-05-10T03:42:13.653Z,63.06
2023-05-10T03:43:13.942Z,63.17
2023-05-10T03:44:14.177Z,63.17
2023-05-10T03:45:14.463Z,63.17
2023-05-10T03:46:14.904Z,63.06
2023-05-10T03:47:14.988Z,63.17
2023-05-10T03:48:15.301Z,63.26
2023-05-10T03:49:15.573Z,63.26
2023-05-10T03:50:16.220Z,63.26
2023-05-10T03:51:16.197Z,63.37
2023-05-10T03:52:16.470Z,63.37
2023-05-10T03:53:16.769Z,63.37
2023-05-10T03:54:17.015Z,63.26
2023-05-10T03:55:17.288Z,63.40
2023-05-10T03:56:17.518Z,63.50
2023-05-10T03:57:17.763Z,63.37
2023-05-10T03:58:18.001Z,63.50
2023-05-10T03:59:18.278Z,63.60
2023-05-10T04:00:18.858Z,63.50
2023-05-10T04:01:18.857Z,63.60
2023-05-10T04:02:19.118Z,63.70
2023-05-10T04:03:19.451Z,63.70
2023-05-10T04:04:19.950Z,63.60
2023-05-10T04:05:19.954Z,63.70
2023-05-10T04:06:20.291Z,63.60
2023-05-10T04:07:20.536Z,63.60
2023-05-10T04:08:20.802Z,63.60
2023-05-10T04:09:21.087Z,63.81
2023-05-10T04:10:21.330Z,63.68
2023-05-10T04:11:21.589Z,63.81
2023-05-10T04:12:21.837Z,63.81
2023-05-10T04:13:22.215Z,63.68
2023-05-10T04:14:22.369Z,63.68
2023-05-10T04:15:22.653Z,63.78
2023-05-10T04:16:22.959Z,63.78
2023-05-10T04:17:23.250Z,63.78
2023-05-10T04:18:23.499Z,63.78
2023-05-10T04:19:24.159Z,63.78
2023-05-10T04:20:24.092Z,63.78
2023-05-10T04:21:24.312Z,63.57
2023-05-10T04:22:24.565Z,63.57
2023-05-10T04:23:24.793Z,63.57
2023-05-10T04:24:25.036Z,63.57
2023-05-10T04:25:25.300Z,63.47
2023-05-10T04:26:25.572Z,63.57
2023-05-10T04:27:25.802Z,63.47
2023-05-10T04:28:26.039Z,63.47
2023-05-10T04:29:26.311Z,63.37
2023-05-10T04:30:26.584Z,63.47
2023-05-10T04:31:26.910Z,63.34
2023-05-10T04:32:27.126Z,63.34
2023-05-10T04:33:27.372Z,63.24
2023-05-10T04:34:27.664Z,63.24
2023-05-10T04:35:27.906Z,63.24
2023-05-10T04:36:28.185Z,63.03
2023-05-10T04:37:28.424Z,63.03
2023-05-10T04:38:28.655Z,62.93
2023-05-10T04:39:28.936Z,63.03
2023-05-10T04:40:29.169Z,63.24
2023-05-10T04:41:29.433Z,63.24
2023-05-10T04:42:29.703Z,62.93
2023-05-10T04:43:29.950Z,62.93
2023-05-10T04:44:30.208Z,62.93
2023-05-10T04:45:30.491Z,62.70
2023-05-10T04:46:30.781Z,62.59
2023-05-10T04:47:31.037Z,62.39
2023-05-10T04:48:31.275Z,62.39
2023-05-10T04:49:31.536Z,62.39
2023-05-10T04:50:31.793Z,62.29
2023-05-10T04:51:32.079Z,62.39
2023-05-10T04:52:32.376Z,61.98
2023-05-10T04:53:32.639Z,62.08
2023-05-10T04:54:32.891Z,61.85
2023-05-10T04:55:33.173Z,61.54
2023-05-10T04:56:33.451Z,60.87
2023-05-10T04:57:33.693Z,59.89
2023-05-10T04:58:33.960Z,58.18
2023-05-10T04:59:34.234Z,57.29
2023-05-10T05:00:34.534Z,55.07
2023-05-10T05:01:34.927Z,53.09
2023-05-10T05:02:35.150Z,51.82
2023-05-10T05:03:35.400Z,50.99
2023-05-10T05:04:35.534Z,50.66
2023-05-10T05:05:35.841Z,49.62
2023-05-10T05:06:36.050Z,49.32
2023-05-10T05:07:36.343Z,49.10
2023-05-10T05:08:36.578Z,48.67
2023-05-10T05:09:36.857Z,48.14
2023-05-10T05:10:37.138Z,47.74
2023-05-10T05:11:37.450Z,47.31
2023-05-10T05:12:37.645Z,47.23
2023-05-10T05:13:38.002Z,47.31
2023-05-10T05:14:38.305Z,47.20
2023-05-10T05:15:38.605Z,46.98
2023-05-10T05:16:38.865Z,46.60
2023-05-10T05:17:39.135Z,46.91
2023-05-10T05:18:39.411Z,47.00
2023-05-10T05:19:39.737Z,46.91
2023-05-10T05:20:39.985Z,46.68
2023-05-10T05:21:40.285Z,46.56
2023-05-10T05:22:40.545Z,46.23
2023-05-10T05:23:40.840Z,46.13
2023-05-10T05:24:41.098Z,46.01
2023-05-10T05:25:41.387Z,45.48
2023-05-10T05:26:41.665Z,44.87
2023-05-10T05:27:41.925Z,44.78
2023-05-10T05:28:42.188Z,44.98
2023-05-10T05:29:42.657Z,44.78
2023-05-10T05:30:42.812Z,44.78
2023-05-10T05:31:43.230Z,44.75
2023-05-10T05:32:43.439Z,44.55
2023-05-10T05:33:43.739Z,44.63
2023-05-10T05:34:43.872Z,44.11
2023-05-10T05:35:44.115Z,43.48
2023-05-10T05:36:44.501Z,43.18
2023-05-10T05:37:44.640Z,43.59
2023-05-10T05:38:44.968Z,43.36
2023-05-10T05:39:45.250Z,43.06
2023-05-10T05:40:45.520Z,43.36
2023-05-10T05:41:45.791Z,42.84
2023-05-10T05:42:46.417Z,42.44
2023-05-10T05:43:46.352Z,42.74
2023-05-10T05:44:46.682Z,42.33
2023-05-10T05:45:47.093Z,42.66
2023-05-10T05:46:47.336Z,42.55
2023-05-10T05:47:47.594Z,42.66
2023-05-10T05:48:47.750Z,42.64
2023-05-10T05:49:48.189Z,42.11
2023-05-10T05:50:48.405Z,42.03
2023-05-10T05:51:48.601Z,42.03
2023-05-10T05:52:48.904Z,42.03
2023-05-10T05:53:49.203Z,42.44
2023-05-10T05:54:49.531Z,42.41
2023-05-10T05:55:50.572Z,42.10
2023-05-10T05:56:50.186Z,40.97
2023-05-10T05:57:50.472Z,41.27
2023-05-10T05:58:50.738Z,41.17
2023-05-10T05:59:51.092Z,41.15
2023-05-10T06:00:51.340Z,40.67
2023-05-10T06:01:51.810Z,41.19
2023-05-10T06:02:52.160Z,41.69
2023-05-10T06:03:53.490Z,41.37
2023-05-10T06:04:52.469Z,41.17
2023-05-10T06:05:52.791Z,41.07
2023-05-10T06:06:53.180Z,41.25
2023-05-10T06:07:53.332Z,41.03
2023-05-10T06:08:53.723Z,40.73
2023-05-10T06:09:53.887Z,40.91
2023-05-10T06:10:54.188Z,40.11
2023-05-10T06:11:54.474Z,40.01
2023-05-10T06:12:54.897Z,39.79
2023-05-10T06:14:01.278Z,39.61
2023-05-10T06:14:55.438Z,39.69
2023-05-10T06:15:55.694Z,39.77
2023-05-10T06:16:56.005Z,39.83
2023-05-10T06:17:56.204Z,38.53
2023-05-10T06:18:56.334Z,38.73
2023-05-10T06:19:56.688Z,39.13
2023-05-10T06:20:56.999Z,38.73
2023-05-10T06:21:57.409Z,38.93
2023-05-10T06:22:57.671Z,39.11
2023-05-10T06:23:57.917Z,38.59
2023-05-10T06:24:58.332Z,38.42
2023-05-10T06:25:58.375Z,38.11
2023-05-10T06:26:59.398Z,38.31
2023-05-10T06:28:21.504Z,38.13
2023-05-10T06:28:59.196Z,38.23
2023-05-10T06:30:11.604Z,38.25
2023-05-10T06:31:00.688Z,38.55
2023-05-10T06:31:59.960Z,39.17
2023-05-10T06:33:00.667Z,39.37
2023-05-10T06:34:00.847Z,39.77
2023-05-10T06:35:00.736Z,40.05
2023-05-10T06:36:01.073Z,39.25
2023-05-10T06:37:01.498Z,39.85
2023-05-10T06:38:02.060Z,39.67
2023-05-10T06:39:01.880Z,39.79
2023-05-10T06:40:02.421Z,39.91
2023-05-10T06:41:02.404Z,40.23
2023-05-10T06:42:02.759Z,40.95
2023-05-10T06:43:02.917Z,41.27
2023-05-10T06:44:03.220Z,41.69
2023-05-10T06:45:03.478Z,42.01
2023-05-10T06:46:03.843Z,42.96
2023-05-10T06:47:04.054Z,44.11
2023-05-10T06:48:04.393Z,44.63
2023-05-10T06:49:04.626Z,45.18
2023-05-10T06:50:04.930Z,45.98
2023-05-10T06:51:05.318Z,46.43
2023-05-10T06:52:05.997Z,46.96
2023-05-10T06:53:05.695Z,47.49
2023-05-10T06:54:06.052Z,48.22
2023-05-10T06:55:06.400Z,48.65
2023-05-10T06:56:06.637Z,49.27
2023-05-10T06:57:16.165Z,49.50
2023-05-10T06:58:08.157Z,50.21
2023-05-10T06:59:07.694Z,50.61
2023-05-10T07:00:07.840Z,50.74
2023-05-10T07:01:08.033Z,50.84
2023-05-10T07:02:08.380Z,51.45
2023-05-10T07:03:08.755Z,51.35
2023-05-10T07:04:09.013Z,51.65
2023-05-10T07:05:09.289Z,51.35
2023-05-10T07:06:15.643Z,51.65
2023-05-10T07:07:10.979Z,51.86
2023-05-10T07:08:10.155Z,51.75
2023-05-10T07:09:10.279Z,51.95
2023-05-10T07:10:10.532Z,52.46
2023-05-10T07:11:10.802Z,52.46
2023-05-10T07:12:13.434Z,52.36
2023-05-10T07:13:11.395Z,52.06
2023-05-10T07:14:11.572Z,52.36
2023-05-10T07:15:11.861Z,51.98
2023-05-10T07:16:12.200Z,52.08
2023-05-10T07:17:12.373Z,52.39
2023-05-10T07:18:12.626Z,52.69
2023-05-10T07:19:12.832Z,52.39
2023-05-10T07:20:13.098Z,52.66
2023-05-10T07:21:13.416Z,52.97
2023-05-10T07:22:13.615Z,52.86
2023-05-10T07:23:13.872Z,52.76
2023-05-10T07:24:14.146Z,53.37
2023-05-10T07:25:14.528Z,53.27
2023-05-10T07:26:14.634Z,53.37
2023-05-10T07:27:14.891Z,53.07
2023-05-10T07:28:15.144Z,52.66
2023-05-10T07:29:15.456Z,52.94
2023-05-10T07:30:15.732Z,53.14
2023-05-10T07:31:15.961Z,52.64
2023-05-10T07:32:16.263Z,52.54
2023-05-10T07:33:16.530Z,52.74
2023-05-10T07:34:16.785Z,53.05
2023-05-10T07:35:17.205Z,52.33
2023-05-10T07:36:17.261Z,52.44
2023-05-10T07:37:17.506Z,52.23
2023-05-10T07:38:17.713Z,52.33
2023-05-10T07:39:26.461Z,52.46
2023-05-10T07:40:19.375Z,52.94
2023-05-10T07:41:18.695Z,52.64
2023-05-10T07:42:18.950Z,52.74
2023-05-10T07:43:19.164Z,52.74
2023-05-10T07:44:19.558Z,52.94
2023-05-10T07:45:19.810Z,52.23
2023-05-10T07:46:20.083Z,52.23
2023-05-10T07:47:20.375Z,52.23
2023-05-10T07:48:20.614Z,52.33
2023-05-10T07:49:20.849Z,53.14
2023-05-10T07:50:21.102Z,52.94
2023-05-10T07:51:21.428Z,52.84
2023-05-10T07:52:29.461Z,53.55
2023-05-10T07:53:22.155Z,52.33
2023-05-10T07:54:22.486Z,52.54
2023-05-10T07:55:23.316Z,52.64
2023-05-10T07:56:22.768Z,52.54
2023-05-10T07:57:23.087Z,52.23
2023-05-10T07:58:23.311Z,52.94
2023-05-10T07:59:23.612Z,52.94
2023-05-10T08:00:23.897Z,52.61
2023-05-10T08:01:24.140Z,52.61
2023-05-10T08:02:24.386Z,52.31
2023-05-10T08:03:24.776Z,52.81
2023-05-10T08:04:24.943Z,52.01
2023-05-10T08:05:25.151Z,52.11
2023-05-10T08:06:25.393Z,52.11
2023-05-10T08:07:25.687Z,52.31
2023-05-10T08:08:25.951Z,52.41
2023-05-10T08:09:26.208Z,51.90
2023-05-10T08:10:26.427Z,52.11
2023-05-10T08:11:26.673Z,52.21
2023-05-10T08:12:26.943Z,52.51
2023-05-10T08:13:27.165Z,52.61
2023-05-10T08:14:27.413Z,53.12
2023-05-10T08:15:27.681Z,52.99
2023-05-10T08:16:27.988Z,53.50
2023-05-10T08:17:28.295Z,53.19
2023-05-10T08:18:28.698Z,53.40
2023-05-10T08:19:28.880Z,52.79
2023-05-10T08:20:29.018Z,53.09
2023-05-10T08:21:29.490Z,53.30
2023-05-10T08:22:29.616Z,53.19
2023-05-10T08:23:29.940Z,52.69
2023-05-10T08:24:30.256Z,52.36
2023-05-10T08:25:30.334Z,52.46
2023-05-10T08:26:30.812Z,52.06
2023-05-10T08:27:30.950Z,52.67
2023-05-10T08:28:31.127Z,52.97
2023-05-10T08:29:38.651Z,52.56
2023-05-10T08:30:32.707Z,52.36
2023-05-10T08:31:32.052Z,51.96
2023-05-10T08:32:32.239Z,52.46
2023-05-10T08:33:32.408Z,52.87
2023-05-10T08:34:32.676Z,52.26
2023-05-10T08:35:32.977Z,52.26
2023-05-10T08:36:33.277Z,52.26
2023-05-10T08:37:33.661Z,53.07
2023-05-10T08:38:33.878Z,53.07
2023-05-10T08:39:34.152Z,52.06
2023-05-10T08:40:34.517Z,51.86
2023-05-10T08:41:34.713Z,51.76
2023-05-10T08:42:35.021Z,52.03
2023-05-10T08:43:35.357Z,52.54
2023-05-10T08:44:35.746Z,52.84
2023-05-10T08:45:35.913Z,52.03
2023-05-10T08:46:36.234Z,51.53
2023-05-10T08:47:36.585Z,51.63
2023-05-10T08:48:36.809Z,51.83
2023-05-10T08:49:37.169Z,52.23
2023-05-10T08:50:37.434Z,52.84
2023-05-10T08:51:37.704Z,53.14
2023-05-10T08:52:38.148Z,51.93
2023-05-10T08:53:38.406Z,52.74
2023-05-10T08:54:38.502Z,53.05
2023-05-10T08:55:38.802Z,52.34
2023-05-10T08:56:39.163Z,51.93
2023-05-10T08:57:39.387Z,52.34
2023-05-10T08:58:39.720Z,52.34
2023-05-10T08:59:41.775Z,51.53
2023-05-10T09:00:43.652Z,51.93
2023-05-10T09:01:40.565Z,52.74
2023-05-10T09:02:40.730Z,52.41
2023-05-10T09:03:41.073Z,52.51
2023-05-10T09:04:41.302Z,52.41
2023-05-10T09:05:41.588Z,52.31
2023-05-10T09:06:41.918Z,51.81
2023-05-10T09:07:42.160Z,51.50
2023-05-10T09:08:42.396Z,51.71
2023-05-10T09:09:42.653Z,51.71
2023-05-10T09:10:42.987Z,52.11
2023-05-10T09:11:43.241Z,52.61
2023-05-10T09:12:43.556Z,52.69
2023-05-10T09:13:43.914Z,52.39
2023-05-10T09:14:44.069Z,51.07
2023-05-10T09:15:44.549Z,50.87
2023-05-10T09:16:44.740Z,50.27
2023-05-10T09:17:44.992Z,50.16
2023-05-10T09:18:45.508Z,50.35
2023-05-10T09:19:45.431Z,50.45
2023-05-10T09:20:45.728Z,50.75
2023-05-10T09:21:46.252Z,51.45
2023-05-10T09:22:46.335Z,51.25
2023-05-10T09:23:48.236Z,50.75
2023-05-10T09:24:46.955Z,51.96
2023-05-10T09:25:47.206Z,51.23
2023-05-10T09:26:47.469Z,50.82
2023-05-10T09:27:47.711Z,50.52
2023-05-10T09:28:48.005Z,50.32
2023-05-10T09:29:48.222Z,50.02
2023-05-10T09:30:48.479Z,50.22
2023-05-10T09:31:48.745Z,49.82
2023-05-10T09:32:49.062Z,50.12
2023-05-10T09:33:49.338Z,50.22
2023-05-10T09:34:49.573Z,50.73
2023-05-10T09:35:49.796Z,50.42
2023-05-10T09:36:50.092Z,49.99
2023-05-10T09:37:50.365Z,50.20
2023-05-10T09:38:50.611Z,49.79
2023-05-10T09:39:50.899Z,49.69
2023-05-10T09:40:51.156Z,49.79
2023-05-10T09:41:51.427Z,49.79
2023-05-10T09:42:51.690Z,50.50
2023-05-10T09:43:51.988Z,49.29
2023-05-10T09:44:52.243Z,49.09
2023-05-10T09:45:52.655Z,49.29
2023-05-10T09:46:52.764Z,50.10
2023-05-10T09:47:53.066Z,49.79
2023-05-10T09:48:53.337Z,49.37
2023-05-10T09:49:53.646Z,48.66
2023-05-10T09:50:53.910Z,48.96
2023-05-10T09:51:54.156Z,49.07
2023-05-10T09:52:54.922Z,48.26
2023-05-10T09:53:54.654Z,48.66
2023-05-10T09:54:54.906Z,47.86
2023-05-10T09:55:55.162Z,47.05
2023-05-10T09:56:55.413Z,47.86
2023-05-10T09:57:55.690Z,48.06
2023-05-10T09:58:55.941Z,47.45
2023-05-10T09:59:56.232Z,47.35
2023-05-10T10:00:56.761Z,46.95
2023-05-10T10:01:57.059Z,47.05
2023-05-10T10:02:57.185Z,46.65
2023-05-10T10:03:57.513Z,47.66
2023-05-10T10:04:57.873Z,47.83
2023-05-10T10:05:58.111Z,48.14
2023-05-10T10:06:58.394Z,48.44
2023-05-10T10:07:58.825Z,48.24
2023-05-10T10:08:59.212Z,48.34
2023-05-10T10:09:59.366Z,49.24
2023-05-10T10:10:59.475Z,48.44
2023-05-10T10:11:59.859Z,47.74
2023-05-10T10:13:00.133Z,48.54
2023-05-10T10:14:00.346Z,48.64
2023-05-10T10:15:00.468Z,47.63
2023-05-10T10:16:00.904Z,48.34
2023-05-10T10:17:08.384Z,47.53
2023-05-10T10:18:02.218Z,47.74
2023-05-10T10:19:01.690Z,48.64
2023-05-10T10:20:01.835Z,48.54
2023-05-10T10:21:02.084Z,49.15
2023-05-10T10:22:02.374Z,48.24
2023-05-10T10:23:02.668Z,47.83
2023-05-10T10:24:02.967Z,47.74
2023-05-10T10:25:03.235Z,48.14
2023-05-10T10:26:03.565Z,48.11
2023-05-10T10:27:03.857Z,48.01
2023-05-10T10:28:04.172Z,48.32
2023-05-10T10:29:04.405Z,48.11
2023-05-10T10:30:04.686Z,48.32
2023-05-10T10:31:04.998Z,48.41
2023-05-10T10:32:05.224Z,48.61
2023-05-10T10:33:10.378Z,48.41
2023-05-10T10:34:06.709Z,48.82
2023-05-10T10:35:06.046Z,49.12
2023-05-10T10:36:06.304Z,48.90
2023-05-10T10:37:06.576Z,48.49
2023-05-10T10:38:06.857Z,47.61
2023-05-10T10:39:07.146Z,47.51
2023-05-10T10:40:07.445Z,47.91
2023-05-10T10:41:07.739Z,48.32
2023-05-10T10:42:08.044Z,48.61
2023-05-10T10:43:08.288Z,47.00
2023-05-10T10:44:08.593Z,46.68
2023-05-10T10:45:09.097Z,46.38
2023-05-10T10:46:09.389Z,45.98
2023-05-10T10:47:09.720Z,45.27
2023-05-10T10:48:09.951Z,45.37
2023-05-10T10:49:10.132Z,45.27
2023-05-10T10:50:10.499Z,45.17
2023-05-10T10:51:12.742Z,45.47
2023-05-10T10:52:11.088Z,44.85
2023-05-10T10:53:11.378Z,44.75
2023-05-10T10:54:11.651Z,44.75
2023-05-10T10:55:11.919Z,45.35
2023-05-10T10:56:12.203Z,45.65
2023-05-10T10:57:12.461Z,46.15
2023-05-10T10:58:12.789Z,45.65
2023-05-10T10:59:13.109Z,44.35
2023-05-10T11:00:13.469Z,44.95
2023-05-10T11:01:13.675Z,43.64
2023-05-10T11:02:14.011Z,43.84
2023-05-10T11:03:14.630Z,43.64
2023-05-10T11:04:14.482Z,44.45
2023-05-10T11:05:14.998Z,44.83
2023-05-10T11:06:15.215Z,43.54
2023-05-10T11:07:15.309Z,44.12
2023-05-10T11:08:15.611Z,44.02
2023-05-10T11:09:15.870Z,44.63
2023-05-10T11:10:16.312Z,44.73
2023-05-10T11:11:16.503Z,44.93
2023-05-10T11:12:16.737Z,45.33
2023-05-10T11:13:18.494Z,43.52
2023-05-10T11:14:18.309Z,42.41
2023-05-10T11:15:17.968Z,42.82
2023-05-10T11:16:18.136Z,43.22
2023-05-10T11:17:18.144Z,42.72
2023-05-10T11:18:18.545Z,41.11
2023-05-10T11:19:18.685Z,41.41
2023-05-10T11:20:19.234Z,41.41
2023-05-10T11:21:19.224Z,41.91
2023-05-10T11:22:19.504Z,41.82
2023-05-10T11:23:19.756Z,42.11
2023-05-10T11:24:20.022Z,42.32
2023-05-10T11:25:20.296Z,42.41
2023-05-10T11:26:21.554Z,42.11
2023-05-10T11:27:20.884Z,42.01
2023-05-10T11:28:21.165Z,41.82
2023-05-10T11:29:21.499Z,42.82
2023-05-10T11:30:21.789Z,42.61
2023-05-10T11:31:22.044Z,43.50
2023-05-10T11:32:22.300Z,43.30
2023-05-10T11:33:22.698Z,43.50
2023-05-10T11:34:22.871Z,43.40
2023-05-10T11:35:23.158Z,42.69
2023-05-10T11:36:23.432Z,42.90
2023-05-10T11:37:23.887Z,42.90
2023-05-10T11:38:24.322Z,43.20
2023-05-10T11:39:24.538Z,42.60
2023-05-10T11:40:24.735Z,42.49
2023-05-10T11:41:24.848Z,42.60
2023-05-10T11:42:25.167Z,43.00
2023-05-10T11:43:25.521Z,42.69
2023-05-10T11:44:25.892Z,43.78
2023-05-10T11:45:26.152Z,43.48
2023-05-10T11:46:26.634Z,43.18
2023-05-10T11:47:26.884Z,42.78
2023-05-10T11:48:27.026Z,41.47
2023-05-10T11:49:27.351Z,42.38
2023-05-10T11:50:27.698Z,41.97
2023-05-10T11:51:27.849Z,42.38
2023-05-10T11:52:28.629Z,42.78
2023-05-10T11:53:28.618Z,43.18
2023-05-10T11:54:28.749Z,44.18
2023-05-10T11:55:29.012Z,43.68
2023-05-10T11:56:29.286Z,44.18
2023-05-10T11:57:34.031Z,43.58
2023-05-10T11:58:29.954Z,43.18
2023-05-10T11:59:30.106Z,43.28
2023-05-10T12:00:30.410Z,43.88
2023-05-10T12:01:30.662Z,44.38
2023-05-10T12:02:31.067Z,43.68
2023-05-10T12:03:32.042Z,43.48
2023-05-10T12:04:31.598Z,43.58
2023-05-10T12:05:31.681Z,43.28
2023-05-10T12:06:32.140Z,43.78
2023-05-10T12:07:32.209Z,43.48
2023-05-10T12:08:32.805Z,43.78
2023-05-10T12:09:43.298Z,43.78
2023-05-10T12:10:33.980Z,44.38
2023-05-10T12:11:33.329Z,44.89
2023-05-10T12:12:33.548Z,44.38
2023-05-10T12:13:33.947Z,44.18
2023-05-10T12:14:34.202Z,44.08
2023-05-10T12:15:34.435Z,44.28
2023-05-10T12:16:34.762Z,44.48
2023-05-10T12:17:35.073Z,44.67
2023-05-10T12:18:35.342Z,44.67
2023-05-10T12:19:35.541Z,44.76
2023-05-10T12:20:35.883Z,43.96
2023-05-10T12:21:36.174Z,43.28
2023-05-10T12:22:36.448Z,44.08
2023-05-10T12:23:36.738Z,44.46
2023-05-10T12:24:36.992Z,44.87
2023-05-10T12:25:37.257Z,44.26
2023-05-10T12:26:37.562Z,43.86
2023-05-10T12:27:37.828Z,44.96
2023-05-10T12:28:38.071Z,44.36
2023-05-10T12:29:38.345Z,44.16
2023-05-10T12:30:38.600Z,43.96
2023-05-10T12:31:38.865Z,44.16
2023-05-10T12:32:39.137Z,44.26
2023-05-10T12:33:39.391Z,43.46
2023-05-10T12:34:39.759Z,43.56
2023-05-10T12:35:41.767Z,43.26
2023-05-10T12:36:40.357Z,43.96
2023-05-10T12:37:40.576Z,43.86
2023-05-10T12:38:40.842Z,43.76
2023-05-10T12:39:41.110Z,43.96
2023-05-10T12:40:41.390Z,44.64
2023-05-10T12:41:43.627Z,44.04
2023-05-10T12:42:41.941Z,43.14
2023-05-10T12:43:42.248Z,42.74
2023-05-10T12:44:42.512Z,42.94
2023-05-10T12:45:42.798Z,43.34
2023-05-10T12:46:43.002Z,43.54
2023-05-10T12:47:44.104Z,43.64
2023-05-10T12:48:43.652Z,43.74
2023-05-10T12:49:43.945Z,43.04
2023-05-10T12:50:44.238Z,43.14
2023-05-10T12:51:44.498Z,42.74
2023-05-10T12:52:44.734Z,43.44
2023-05-10T12:53:46.720Z,43.44
2023-05-10T12:54:45.305Z,43.44
2023-05-10T12:55:45.527Z,43.74